Terminal Aerodrome Forecast
Issued by NWS

Home | Current Version | Previous Version | Graphics & Text | Print | Product List | Glossary On
Versions: 1 2 3 4 5 6 7 8 9 10 11 12 13 14 15 16 17
000
FTUS43 KTOP 210520
TAFMHK
TAF
KMHK 210520Z 2106/2206 20007KT P6SM SCT100
     FM210800 22004KT P6SM SCT100 WS015/22035KT
     FM211200 21007KT P6SM FEW200
     FM211700 20014G22KT P6SM SKC
     FM220100 19008KT P6SM SCT250=

USA.gov is the U.S. government's official web portal to all federal, state and local government web resources and services.